createdAt,value
2019-04-26T00:00:09.161Z,60.79
2019-04-26T00:01:09.017Z,60.03
2019-04-26T00:02:08.992Z,60.70
2019-04-26T00:03:08.879Z,60.22
2019-04-26T00:04:08.855Z,59.74
2019-04-26T00:05:07.814Z,60.22
2019-04-26T00:06:08.893Z,60.31
2019-04-26T00:07:08.133Z,60.31
2019-04-26T00:08:07.563Z,60.60
2019-04-26T00:09:07.488Z,61.75
2019-04-26T00:10:07.409Z,61.37
2019-04-26T00:11:07.330Z,62.04
2019-04-26T00:12:07.253Z,61.85
2019-04-26T00:13:07.190Z,62.33
2019-04-26T00:14:28.094Z,62.42
2019-04-26T00:15:07.034Z,61.85
2019-04-26T00:16:06.957Z,62.04
2019-04-26T00:17:06.878Z,61.85
2019-04-26T00:18:06.814Z,62.33
2019-04-26T00:19:06.725Z,62.90
2019-04-26T00:20:06.649Z,62.90
2019-04-26T00:21:06.568Z,63.57
2019-04-26T00:22:06.492Z,63.29
2019-04-26T00:23:06.438Z,64.25
2019-04-26T00:24:06.340Z,63.96
2019-04-26T00:25:06.279Z,64.63
2019-04-26T00:26:06.183Z,64.34
2019-04-26T00:27:06.111Z,63.76
2019-04-26T00:28:06.032Z,62.81
2019-04-26T00:29:05.953Z,61.91
2019-04-26T00:30:05.875Z,62.13
2019-04-26T00:31:05.805Z,63.00
2019-04-26T00:32:05.720Z,62.33
2019-04-26T00:33:05.646Z,62.33
2019-04-26T00:34:05.566Z,63.19
2019-04-26T00:35:05.495Z,64.05
2019-04-26T00:36:05.411Z,63.19
2019-04-26T00:37:05.333Z,63.26
2019-04-26T00:38:05.256Z,63.73
2019-04-26T00:39:05.177Z,64.02
2019-04-26T00:40:05.105Z,63.83
2019-04-26T00:41:05.025Z,63.26
2019-04-26T00:42:04.991Z,62.87
2019-04-26T00:43:04.868Z,63.16
2019-04-26T00:44:04.793Z,63.92
2019-04-26T00:45:04.717Z,63.73
2019-04-26T00:46:04.634Z,63.83
2019-04-26T00:47:04.560Z,64.69
2019-04-26T00:48:04.482Z,65.08
2019-04-26T00:49:04.401Z,64.59
2019-04-26T00:50:04.328Z,66.13
2019-04-26T00:51:04.247Z,67.18
2019-04-26T00:52:04.171Z,67.63
2019-04-26T00:53:04.096Z,68.11
2019-04-26T00:54:04.019Z,68.11
2019-04-26T00:55:03.930Z,67.72
2019-04-26T00:56:03.861Z,67.15
2019-04-26T00:57:03.771Z,66.86
2019-04-26T00:58:03.705Z,67.44
2019-04-26T00:59:03.626Z,66.09
2019-04-26T01:00:03.552Z,65.91
2019-04-26T01:01:03.473Z,65.81
2019-04-26T01:02:03.397Z,65.62
2019-04-26T01:03:03.317Z,65.52
2019-04-26T01:04:03.232Z,65.14
2019-04-26T01:05:03.153Z,65.62
2019-04-26T01:06:03.072Z,65.23
2019-04-26T01:07:02.995Z,65.23
2019-04-26T01:08:02.917Z,65.71
2019-04-26T01:09:02.867Z,65.52
2019-04-26T01:10:02.756Z,65.62
2019-04-26T01:11:02.684Z,65.14
2019-04-26T01:12:02.604Z,65.05
2019-04-26T01:13:02.526Z,65.52
2019-04-26T01:14:02.448Z,65.68
2019-04-26T01:15:02.366Z,66.06
2019-04-26T01:16:02.299Z,66.06
2019-04-26T01:17:02.216Z,65.78
2019-04-26T01:18:02.136Z,65.88
2019-04-26T01:19:02.055Z,65.20
2019-04-26T01:20:01.979Z,64.82
2019-04-26T01:21:01.902Z,65.36
2019-04-26T01:22:01.822Z,65.30
2019-04-26T01:23:01.800Z,65.49
2019-04-26T01:24:01.666Z,65.49
2019-04-26T01:25:01.590Z,66.06
2019-04-26T01:26:01.515Z,66.83
2019-04-26T01:27:01.435Z,66.74
2019-04-26T01:28:01.355Z,66.25
2019-04-26T01:29:01.278Z,66.16
2019-04-26T01:30:01.194Z,66.16
2019-04-26T01:31:01.119Z,65.88
2019-04-26T01:32:01.040Z,66.25
2019-04-26T01:33:00.958Z,66.06
2019-04-26T01:35:43.954Z,67.02
2019-04-26T01:36:43.862Z,66.64
2019-04-26T01:38:37.107Z,67.02
2019-04-26T01:39:37.025Z,65.49
2019-04-26T01:41:41.316Z,63.67
2019-04-26T01:42:41.238Z,62.71
2019-04-26T01:44:45.537Z,62.23
2019-04-26T01:45:45.448Z,61.37
2019-04-26T01:47:49.739Z,61.94
2019-04-26T01:48:49.657Z,61.85
2019-04-26T01:50:53.951Z,63.10
2019-04-26T01:51:53.867Z,63.19
2019-04-26T01:52:53.786Z,63.10
2019-04-26T01:53:53.712Z,62.33
2019-04-26T01:54:53.634Z,62.81
2019-04-26T01:55:53.550Z,62.43
2019-04-26T01:56:53.479Z,63.39
2019-04-26T01:57:53.394Z,63.10
2019-04-26T01:58:53.319Z,62.52
2019-04-26T01:59:53.244Z,63.00
2019-04-26T02:00:53.162Z,64.25
2019-04-26T02:01:53.084Z,65.20
2019-04-26T02:02:53.010Z,67.02
2019-04-26T02:03:52.929Z,68.74
2019-04-26T02:04:52.847Z,69.51
2019-04-26T02:05:52.770Z,69.03
2019-04-26T02:06:52.692Z,68.46
2019-04-26T02:07:52.614Z,68.27
2019-04-26T02:08:52.545Z,67.79
2019-04-26T02:09:52.467Z,67.79
2019-04-26T02:10:52.382Z,67.50
2019-04-26T02:11:52.310Z,67.98
2019-04-26T02:12:52.230Z,67.98
2019-04-26T02:13:52.154Z,68.55
2019-04-26T02:14:52.079Z,68.65
2019-04-26T02:15:51.999Z,69.03
2019-04-26T02:16:51.919Z,69.03
2019-04-26T02:17:51.840Z,68.17
2019-04-26T02:18:51.764Z,68.94
2019-04-26T02:19:51.689Z,69.60
2019-04-26T02:20:51.607Z,69.70
2019-04-26T02:21:51.527Z,70.28
2019-04-26T02:22:51.450Z,69.23
2019-04-26T02:23:51.373Z,69.32
2019-04-26T02:24:51.294Z,69.42
2019-04-26T02:25:51.215Z,68.74
2019-04-26T02:26:51.140Z,69.32
2019-04-26T02:27:51.059Z,69.70
2019-04-26T02:28:50.981Z,70.37
2019-04-26T02:29:50.904Z,71.23
2019-04-26T02:30:50.825Z,70.28
2019-04-26T02:31:50.757Z,68.65
2019-04-26T02:32:50.669Z,68.46
2019-04-26T02:33:50.590Z,68.07
2019-04-26T02:34:50.514Z,68.46
2019-04-26T02:35:50.433Z,69.23
2019-04-26T02:36:57.755Z,69.80
2019-04-26T02:37:50.278Z,68.94
2019-04-26T02:38:50.201Z,69.13
2019-04-26T02:39:50.121Z,69.03
2019-04-26T02:40:50.042Z,68.90
2019-04-26T02:41:49.964Z,69.38
2019-04-26T02:42:49.892Z,69.38
2019-04-26T02:43:49.809Z,70.15
2019-04-26T02:44:49.736Z,69.38
2019-04-26T02:45:49.653Z,69.38
2019-04-26T02:46:58.258Z,69.03
2019-04-26T02:48:53.879Z,68.36
2019-04-26T02:49:53.784Z,68.36
2019-04-26T02:51:58.109Z,69.13
2019-04-26T02:52:58.010Z,68.80
2019-04-26T02:55:03.349Z,80.62
2019-04-26T02:56:03.266Z,88.56
2019-04-26T02:57:56.510Z,85.17
2019-04-26T02:58:56.414Z,84.50
2019-04-26T03:01:00.786Z,92.16
2019-04-26T03:02:00.643Z,93.21
2019-04-26T03:03:00.576Z,97.13
2019-04-26T03:04:00.497Z,95.61
2019-04-26T03:05:00.433Z,97.90
2019-04-26T03:06:00.376Z,97.23
2019-04-26T03:07:03.517Z,95.31
2019-04-26T03:08:00.227Z,91.11
2019-04-26T03:09:00.090Z,97.61
2019-04-26T03:10:00.263Z,99.62
2019-04-26T03:10:59.931Z,96.66
2019-04-26T03:11:59.852Z,96.47
2019-04-26T03:12:59.776Z,87.76
2019-04-26T03:13:59.704Z,91.49
2019-04-26T03:15:13.297Z,97.80
2019-04-26T03:15:59.542Z,94.50
2019-04-26T03:16:59.461Z,94.31
2019-04-26T03:17:59.382Z,95.94
2019-04-26T03:18:59.304Z,86.85
2019-04-26T03:19:59.225Z,97.23
2019-04-26T03:20:59.149Z,95.46
2019-04-26T03:21:59.066Z,97.75
2019-04-26T03:22:58.989Z,99.99
2019-04-26T03:23:59.594Z,97.08
2019-04-26T03:24:58.830Z,98.04
2019-04-26T03:25:58.751Z,96.80
2019-04-26T03:26:58.676Z,96.80
2019-04-26T03:27:58.594Z,94.21
2019-04-26T03:28:58.515Z,98.33
2019-04-26T03:30:18.647Z,99.99
2019-04-26T03:30:58.362Z,99.99
2019-04-26T03:31:58.279Z,97.56
2019-04-26T03:32:58.384Z,99.29
2019-04-26T03:33:58.239Z,99.00
2019-04-26T03:34:58.044Z,91.35
2019-04-26T03:35:58.510Z,98.24
2019-04-26T03:36:57.875Z,98.90
2019-04-26T03:37:57.806Z,99.99
2019-04-26T03:38:57.721Z,97.95
2019-04-26T03:39:57.656Z,99.86
2019-04-26T03:40:57.574Z,97.37
2019-04-26T03:41:57.482Z,94.60
2019-04-26T03:42:57.415Z,88.95
2019-04-26T03:43:57.334Z,89.24
2019-04-26T03:44:57.258Z,94.12
2019-04-26T03:45:57.164Z,92.54
2019-04-26T03:46:57.109Z,96.66
2019-04-26T03:47:57.008Z,99.33
2019-04-26T03:48:56.940Z,99.99
2019-04-26T03:49:56.848Z,98.47
2019-04-26T03:50:56.773Z,95.98
2019-04-26T03:51:56.688Z,95.41
2019-04-26T03:52:56.622Z,92.25
2019-04-26T03:53:56.537Z,87.48
2019-04-26T03:54:56.454Z,99.99
2019-04-26T03:55:56.369Z,99.52
2019-04-26T03:56:56.299Z,95.61
2019-04-26T03:57:56.218Z,99.14
2019-04-26T03:58:56.140Z,95.22
2019-04-26T03:59:56.058Z,97.71
2019-04-26T04:00:55.979Z,99.04
2019-04-26T04:01:55.898Z,99.99
2019-04-26T04:02:55.823Z,99.99
2019-04-26T04:03:55.747Z,94.65
2019-04-26T04:04:55.664Z,90.16
2019-04-26T04:05:55.581Z,95.22
2019-04-26T04:07:03.837Z,97.04
2019-04-26T04:07:55.420Z,99.99
2019-04-26T04:08:55.350Z,99.99
2019-04-26T04:09:55.265Z,95.61
2019-04-26T04:10:55.184Z,95.61
2019-04-26T04:12:10.260Z,96.75
2019-04-26T04:12:55.030Z,98.95
2019-04-26T04:13:55.051Z,97.80
2019-04-26T04:14:55.240Z,97.04
2019-04-26T04:15:54.785Z,99.99
2019-04-26T04:16:54.712Z,93.69
2019-04-26T04:17:54.626Z,89.01
2019-04-26T04:18:54.550Z,94.65
2019-04-26T04:19:54.471Z,98.09
2019-04-26T04:20:54.393Z,98.47
2019-04-26T04:21:54.383Z,98.66
2019-04-26T04:22:54.234Z,98.75
2019-04-26T04:23:54.149Z,91.49
2019-04-26T04:24:54.074Z,92.93
2019-04-26T04:25:53.995Z,90.63
2019-04-26T04:26:53.917Z,94.26
2019-04-26T04:27:53.836Z,91.20
2019-04-26T04:28:53.758Z,95.41
2019-04-26T04:29:55.623Z,91.30
2019-04-26T04:30:53.597Z,90.34
2019-04-26T04:31:53.519Z,93.21
2019-04-26T04:32:53.453Z,97.42
2019-04-26T04:33:53.360Z,97.90
2019-04-26T04:34:53.278Z,89.58
2019-04-26T04:35:53.198Z,89.87
2019-04-26T04:36:53.702Z,86.80
2019-04-26T04:38:07.724Z,95.32
2019-04-26T04:38:55.014Z,93.98
2019-04-26T04:39:53.531Z,99.99
2019-04-26T04:40:53.425Z,98.47
2019-04-26T04:41:53.360Z,97.99
2019-04-26T04:42:52.712Z,96.94
2019-04-26T04:43:53.288Z,96.47
2019-04-26T04:44:52.481Z,95.03
2019-04-26T04:45:53.108Z,91.11
2019-04-26T04:46:53.921Z,91.11
2019-04-26T04:47:54.087Z,94.65
2019-04-26T04:48:52.728Z,97.13
2019-04-26T04:49:52.666Z,97.33
2019-04-26T04:50:52.596Z,88.43
2019-04-26T04:51:51.927Z,89.87
2019-04-26T04:52:52.269Z,91.39
2019-04-26T04:53:51.784Z,88.05
2019-04-26T04:55:06.394Z,89.77
2019-04-26T04:55:52.080Z,91.88
2019-04-26T04:56:51.953Z,95.89
2019-04-26T04:57:52.408Z,93.02
2019-04-26T04:58:52.453Z,95.98
2019-04-26T04:59:52.329Z,96.84
2019-04-26T05:00:51.431Z,94.84
2019-04-26T05:01:51.133Z,94.36
2019-04-26T05:02:51.098Z,91.39
2019-04-26T05:03:51.075Z,90.44
2019-04-26T05:04:51.150Z,90.16
2019-04-26T05:05:51.133Z,87.19
2019-04-26T05:06:51.215Z,88.81
2019-04-26T05:07:51.477Z,91.20
2019-04-26T05:08:51.565Z,91.39
2019-04-26T05:09:51.576Z,89.67
2019-04-26T05:10:50.420Z,89.01
2019-04-26T05:11:50.354Z,90.63
2019-04-26T05:12:50.258Z,89.96
2019-04-26T05:13:50.182Z,89.77
2019-04-26T05:14:50.173Z,85.94
2019-04-26T05:15:50.708Z,87.09
2019-04-26T05:16:50.499Z,87.66
2019-04-26T05:17:49.861Z,87.09
2019-04-26T05:18:50.595Z,87.86
2019-04-26T05:19:50.625Z,86.23
2019-04-26T05:20:49.639Z,86.90
2019-04-26T05:21:49.542Z,87.66
2019-04-26T05:22:49.460Z,86.33
2019-04-26T05:23:49.384Z,87.48
2019-04-26T05:24:49.306Z,86.90
2019-04-26T05:25:49.419Z,87.66
2019-04-26T05:26:49.384Z,87.95
2019-04-26T05:27:49.070Z,86.90
2019-04-26T05:28:49.568Z,87.90
2019-04-26T05:29:49.875Z,87.52
2019-04-26T05:30:49.876Z,88.15
2019-04-26T05:31:50.020Z,87.14
2019-04-26T05:32:48.758Z,86.80
2019-04-26T05:33:48.862Z,87.19
2019-04-26T05:34:49.040Z,87.95
2019-04-26T05:35:49.077Z,87.95
2019-04-26T05:36:48.816Z,87.48
2019-04-26T05:37:49.254Z,86.71
2019-04-26T05:38:49.240Z,88.62
2019-04-26T05:39:49.144Z,88.15
2019-04-26T05:40:48.611Z,88.48
2019-04-26T05:41:48.515Z,89.01
2019-04-26T05:42:48.419Z,88.29
2019-04-26T05:43:49.167Z,89.05
2019-04-26T05:44:48.523Z,88.34
2019-04-26T05:45:47.638Z,88.53
2019-04-26T05:46:47.557Z,89.20
2019-04-26T05:48:01.233Z,90.48
2019-04-26T05:48:47.408Z,90.06
2019-04-26T05:49:47.323Z,90.20
2019-04-26T05:50:47.244Z,90.67
2019-04-26T05:51:47.165Z,90.67
2019-04-26T05:52:47.085Z,91.16
2019-04-26T05:53:47.049Z,91.20
2019-04-26T05:54:46.929Z,90.87
2019-04-26T05:55:46.847Z,90.87
2019-04-26T05:56:46.774Z,92.11
2019-04-26T05:57:46.693Z,89.15
2019-04-26T05:58:46.613Z,87.52
2019-04-26T05:59:46.534Z,89.72
2019-04-26T06:00:46.458Z,90.58
2019-04-26T06:01:46.379Z,90.58
2019-04-26T06:02:46.298Z,90.01
2019-04-26T06:03:46.218Z,90.67
2019-04-26T06:04:46.142Z,91.44
2019-04-26T06:05:46.061Z,87.71
2019-04-26T06:06:45.980Z,87.04
2019-04-26T06:07:45.904Z,86.57
2019-04-26T06:08:45.825Z,88.19
2019-04-26T06:09:45.745Z,88.48
2019-04-26T06:10:45.670Z,87.90
2019-04-26T06:11:45.585Z,87.14
2019-04-26T06:12:45.509Z,89.34
2019-04-26T06:13:45.431Z,88.09
2019-04-26T06:14:45.351Z,86.57
2019-04-26T06:15:45.271Z,86.57
2019-04-26T06:16:45.193Z,87.62
2019-04-26T06:17:45.117Z,86.57
2019-04-26T06:18:45.035Z,85.99
2019-04-26T06:19:44.957Z,88.76
2019-04-26T06:20:44.879Z,87.90
2019-04-26T06:21:44.798Z,87.04
2019-04-26T06:22:44.728Z,86.37
2019-04-26T06:23:44.642Z,85.80
2019-04-26T06:24:44.565Z,86.08
2019-04-26T06:25:44.487Z,86.37
2019-04-26T06:26:44.407Z,86.37
2019-04-26T06:27:44.328Z,85.61
2019-04-26T06:28:44.251Z,86.80
2019-04-26T06:29:44.172Z,85.17
2019-04-26T06:30:45.654Z,86.41
2019-04-26T06:31:44.013Z,87.18
2019-04-26T06:32:56.142Z,85.65
2019-04-26T06:33:43.864Z,84.98
2019-04-26T06:34:43.777Z,83.45
2019-04-26T06:35:43.699Z,85.84
2019-04-26T06:36:43.623Z,86.41
2019-04-26T06:37:43.541Z,84.79
2019-04-26T06:38:44.222Z,83.26
2019-04-26T06:39:43.388Z,83.54
2019-04-26T06:40:43.308Z,82.87
2019-04-26T06:41:43.227Z,81.92
2019-04-26T06:42:43.152Z,80.67
2019-04-26T06:43:43.071Z,81.49
2019-04-26T06:44:42.990Z,83.45
2019-04-26T06:45:42.914Z,85.55
2019-04-26T06:46:42.845Z,85.36
2019-04-26T06:47:42.759Z,87.76
2019-04-26T06:48:42.682Z,85.84
2019-04-26T06:49:42.600Z,89.09
2019-04-26T06:50:42.527Z,87.18
2019-04-26T06:51:42.441Z,86.99
2019-04-26T06:52:42.372Z,86.61
2019-04-26T06:53:42.284Z,84.69
2019-04-26T06:54:42.209Z,84.22
2019-04-26T06:55:42.131Z,85.27
2019-04-26T06:56:42.050Z,84.02
2019-04-26T06:57:41.970Z,81.92
2019-04-26T06:58:41.893Z,81.82
2019-04-26T06:59:41.815Z,83.93
2019-04-26T07:00:41.734Z,81.86
2019-04-26T07:01:41.656Z,79.72
2019-04-26T07:02:41.581Z,78.86
2019-04-26T07:03:41.502Z,82.01
2019-04-26T07:04:41.422Z,82.68
2019-04-26T07:05:41.342Z,79.91
2019-04-26T07:06:41.272Z,82.11
2019-04-26T07:07:41.189Z,84.50
2019-04-26T07:08:41.112Z,86.13
2019-04-26T07:09:41.030Z,83.59
2019-04-26T07:10:40.953Z,81.63
2019-04-26T07:11:40.873Z,79.18
2019-04-26T07:12:40.797Z,78.03
2019-04-26T07:13:40.726Z,80.10
2019-04-26T07:14:40.640Z,79.91
2019-04-26T07:15:40.559Z,79.75
2019-04-26T07:16:40.482Z,83.20
2019-04-26T07:17:40.405Z,81.57
2019-04-26T07:18:40.326Z,81.38
2019-04-26T07:19:40.250Z,79.66
2019-04-26T07:20:40.168Z,77.75
2019-04-26T07:21:40.094Z,79.75
2019-04-26T07:22:40.016Z,78.70
2019-04-26T07:23:39.945Z,80.04
2019-04-26T07:24:39.862Z,79.18
2019-04-26T07:25:39.779Z,80.43
2019-04-26T07:26:39.700Z,78.89
2019-04-26T07:27:39.621Z,81.86
2019-04-26T07:28:39.547Z,79.57
2019-04-26T07:29:39.466Z,79.18
2019-04-26T07:30:39.390Z,78.99
2019-04-26T07:31:39.314Z,79.18
2019-04-26T07:32:39.240Z,80.52
2019-04-26T07:33:39.155Z,78.61
2019-04-26T07:34:39.071Z,79.08
2019-04-26T07:35:38.996Z,80.04
2019-04-26T07:36:38.921Z,78.99
2019-04-26T07:37:38.843Z,80.14
2019-04-26T07:38:38.762Z,78.32
2019-04-26T07:39:38.684Z,78.22
2019-04-26T07:40:38.673Z,82.24
2019-04-26T07:41:38.530Z,80.62
2019-04-26T07:42:38.449Z,78.80
2019-04-26T07:43:38.371Z,79.18
2019-04-26T07:44:38.295Z,81.77
2019-04-26T07:45:38.219Z,79.08
2019-04-26T07:46:38.135Z,78.22
2019-04-26T07:47:38.059Z,77.46
2019-04-26T07:48:37.980Z,77.75
2019-04-26T07:49:37.906Z,79.85
2019-04-26T07:50:37.824Z,78.89
2019-04-26T07:51:37.742Z,79.91
2019-04-26T07:52:37.667Z,78.89
2019-04-26T07:53:37.589Z,78.42
2019-04-26T07:54:37.511Z,78.13
2019-04-26T07:55:37.437Z,78.61
2019-04-26T07:56:37.352Z,77.84
2019-04-26T07:57:37.276Z,77.75
2019-04-26T07:58:37.197Z,76.50
2019-04-26T07:59:37.117Z,76.98
2019-04-26T08:00:44.576Z,78.03
2019-04-26T08:01:36.964Z,78.99
2019-04-26T08:02:36.887Z,77.84
2019-04-26T08:03:36.806Z,76.89
2019-04-26T08:04:36.727Z,76.12
2019-04-26T08:05:36.647Z,76.21
2019-04-26T08:06:36.572Z,78.22
2019-04-26T08:07:36.495Z,76.98
2019-04-26T08:08:36.411Z,76.89
2019-04-26T08:09:36.336Z,76.02
2019-04-26T08:10:36.254Z,76.02
2019-04-26T08:11:36.178Z,75.45
2019-04-26T08:12:36.118Z,77.17
2019-04-26T08:13:36.024Z,74.40
2019-04-26T08:14:35.943Z,74.97
2019-04-26T08:15:35.866Z,75.64
2019-04-26T08:16:35.790Z,76.98
2019-04-26T08:17:35.715Z,75.83
2019-04-26T08:18:35.636Z,76.60
2019-04-26T08:19:35.815Z,75.54
2019-04-26T08:20:35.476Z,76.60
2019-04-26T08:21:35.396Z,77.26
2019-04-26T08:22:35.320Z,75.83
2019-04-26T08:23:41.596Z,74.20
2019-04-26T08:24:35.165Z,75.45
2019-04-26T08:25:35.084Z,74.20
2019-04-26T08:26:35.009Z,74.11
2019-04-26T08:27:34.931Z,74.58
2019-04-26T08:28:34.857Z,75.54
2019-04-26T08:29:34.771Z,74.40
2019-04-26T08:30:34.695Z,77.94
2019-04-26T08:31:34.621Z,75.64
2019-04-26T08:32:34.542Z,75.68
2019-04-26T08:33:34.463Z,75.48
2019-04-26T08:34:34.385Z,74.40
2019-04-26T08:35:34.304Z,74.72
2019-04-26T08:36:34.236Z,73.57
2019-04-26T08:37:36.528Z,73.57
2019-04-26T08:38:34.080Z,73.09
2019-04-26T08:39:45.001Z,72.42
2019-04-26T08:40:33.922Z,74.33
2019-04-26T08:41:35.229Z,72.32
2019-04-26T08:42:33.774Z,74.24
2019-04-26T08:43:33.685Z,72.90
2019-04-26T08:44:34.528Z,72.13
2019-04-26T08:45:33.528Z,71.37
2019-04-26T08:47:40.571Z,72.03
2019-04-26T08:49:39.169Z,72.90
2019-04-26T08:50:37.105Z,72.80
2019-04-26T08:51:37.030Z,73.47
2019-04-26T08:52:36.953Z,72.71
2019-04-26T08:53:36.874Z,71.66
2019-04-26T08:54:36.798Z,71.98
2019-04-26T08:55:36.727Z,71.88
2019-04-26T08:56:36.645Z,72.61
2019-04-26T08:57:36.569Z,70.64
2019-04-26T08:58:36.487Z,70.35
2019-04-26T08:59:36.410Z,70.54
2019-04-26T09:00:36.329Z,70.35
2019-04-26T09:01:36.252Z,69.77
2019-04-26T09:02:36.181Z,71.50
2019-04-26T09:03:36.102Z,72.27
2019-04-26T09:04:36.030Z,71.08
2019-04-26T09:05:35.947Z,70.89
2019-04-26T09:06:35.875Z,71.02
2019-04-26T09:07:36.440Z,71.11
2019-04-26T09:08:39.102Z,71.50
2019-04-26T09:09:35.639Z,73.22
2019-04-26T09:10:35.572Z,71.98
2019-04-26T09:11:35.500Z,71.02
2019-04-26T09:12:35.412Z,70.73
2019-04-26T09:13:35.335Z,71.02
2019-04-26T09:14:35.257Z,69.48
2019-04-26T09:15:35.180Z,69.01
2019-04-26T09:16:35.162Z,69.29
2019-04-26T09:17:35.027Z,69.29
2019-04-26T09:18:42.930Z,69.01
2019-04-26T09:19:34.969Z,69.39
2019-04-26T09:20:38.584Z,69.39
2019-04-26T09:21:34.718Z,69.20
2019-04-26T09:22:34.643Z,68.72
2019-04-26T09:23:40.176Z,68.62
2019-04-26T09:24:34.489Z,68.24
2019-04-26T09:25:39.010Z,69.29
2019-04-26T09:26:34.336Z,68.24
2019-04-26T09:27:34.260Z,68.72
2019-04-26T09:28:34.180Z,68.81
2019-04-26T09:29:34.105Z,68.24
2019-04-26T09:30:34.699Z,67.85
2019-04-26T09:31:33.950Z,68.21
2019-04-26T09:32:33.874Z,68.78
2019-04-26T09:33:36.029Z,68.97
2019-04-26T09:34:33.723Z,68.81
2019-04-26T09:35:33.648Z,68.81
2019-04-26T09:36:33.567Z,67.95
2019-04-26T09:37:33.490Z,68.59
2019-04-26T09:38:33.413Z,68.43
2019-04-26T09:39:33.335Z,68.40
2019-04-26T09:40:33.273Z,68.81
2019-04-26T09:41:33.182Z,68.11
2019-04-26T09:42:33.103Z,68.24
2019-04-26T09:43:33.029Z,68.30
2019-04-26T09:44:32.950Z,68.05
2019-04-26T09:45:32.880Z,67.34
2019-04-26T09:46:32.805Z,68.40
2019-04-26T09:47:32.726Z,69.01
2019-04-26T09:48:32.655Z,68.81
2019-04-26T09:49:32.566Z,68.14
2019-04-26T09:50:32.489Z,69.10
2019-04-26T09:51:34.845Z,67.18
2019-04-26T09:52:32.341Z,68.14
2019-04-26T09:53:32.261Z,67.28
2019-04-26T09:54:32.185Z,66.89
2019-04-26T09:55:35.665Z,66.03
2019-04-26T09:56:32.032Z,65.75
2019-04-26T09:57:31.955Z,66.29
2019-04-26T09:58:32.219Z,67.09
2019-04-26T09:59:31.795Z,67.95
2019-04-26T10:00:31.725Z,67.15
2019-04-26T10:01:31.649Z,67.05
2019-04-26T10:02:33.825Z,68.21
2019-04-26T10:03:34.219Z,67.66
2019-04-26T10:04:31.419Z,67.25
2019-04-26T10:05:31.343Z,68.43
2019-04-26T10:06:31.265Z,67.95
2019-04-26T10:07:33.325Z,67.09
2019-04-26T10:08:31.112Z,67.28
2019-04-26T10:09:31.055Z,66.32
2019-04-26T10:10:35.169Z,66.42
2019-04-26T10:11:30.880Z,66.32
2019-04-26T10:12:30.806Z,66.80
2019-04-26T10:13:30.727Z,67.95
2019-04-26T10:14:30.652Z,66.22
2019-04-26T10:15:30.579Z,65.46
2019-04-26T10:16:33.523Z,65.55
2019-04-26T10:17:30.421Z,65.55
2019-04-26T10:18:30.343Z,66.38
2019-04-26T10:19:31.806Z,66.19
2019-04-26T10:20:30.194Z,66.29
2019-04-26T10:21:30.116Z,66.29
2019-04-26T10:22:30.041Z,66.58
2019-04-26T10:23:29.960Z,67.34
2019-04-26T10:24:29.887Z,68.11
2019-04-26T10:25:29.809Z,68.05
2019-04-26T10:26:29.941Z,66.22
2019-04-26T10:27:32.365Z,66.00
2019-04-26T10:28:29.579Z,66.32
2019-04-26T10:29:29.502Z,66.80
2019-04-26T10:30:29.425Z,66.80
2019-04-26T10:31:29.353Z,65.55
2019-04-26T10:32:29.274Z,65.65
2019-04-26T10:33:32.664Z,66.29
2019-04-26T10:34:29.119Z,65.42
2019-04-26T10:35:29.044Z,65.65
2019-04-26T10:36:30.125Z,66.48
2019-04-26T10:37:38.949Z,66.09
2019-04-26T10:38:28.817Z,65.71
2019-04-26T10:39:32.411Z,66.77
2019-04-26T10:40:35.253Z,67.15
2019-04-26T10:41:28.583Z,67.05
2019-04-26T10:42:28.510Z,67.05
2019-04-26T10:43:29.532Z,67.91
2019-04-26T10:44:28.350Z,67.72
2019-04-26T10:45:28.269Z,66.96
2019-04-26T10:46:29.444Z,67.72
2019-04-26T10:47:28.125Z,67.44
2019-04-26T10:48:28.050Z,67.91
2019-04-26T10:49:27.965Z,68.30
2019-04-26T10:50:28.787Z,68.68
2019-04-26T10:51:27.813Z,68.01
2019-04-26T10:52:27.736Z,67.72
2019-04-26T10:53:30.078Z,68.01
2019-04-26T10:54:27.581Z,67.25
2019-04-26T10:55:27.505Z,66.96
2019-04-26T10:56:27.427Z,67.05
2019-04-26T10:57:27.349Z,66.96
2019-04-26T10:58:27.272Z,65.91
2019-04-26T10:59:27.197Z,66.96
2019-04-26T11:00:27.119Z,67.05
2019-04-26T11:01:27.038Z,66.96
2019-04-26T11:02:26.968Z,68.11
2019-04-26T11:03:26.885Z,68.30
2019-04-26T11:04:26.810Z,68.21
2019-04-26T11:05:26.738Z,68.59
2019-04-26T11:06:27.912Z,69.45
2019-04-26T11:07:26.578Z,68.30
2019-04-26T11:08:26.503Z,68.21
2019-04-26T11:09:26.427Z,68.30
2019-04-26T11:10:26.349Z,69.03
2019-04-26T11:11:26.269Z,69.32
2019-04-26T11:12:26.194Z,69.32
2019-04-26T11:13:26.114Z,70.03
2019-04-26T11:14:26.040Z,69.93
2019-04-26T11:15:29.029Z,69.03
2019-04-26T11:16:25.883Z,68.94
2019-04-26T11:17:25.808Z,69.42
2019-04-26T11:18:27.784Z,69.51
2019-04-26T11:19:25.653Z,70.76
2019-04-26T11:20:25.580Z,70.28
2019-04-26T11:21:25.502Z,70.18
2019-04-26T11:22:29.439Z,70.09
2019-04-26T11:23:25.348Z,69.42
2019-04-26T11:24:25.265Z,69.23
2019-04-26T11:25:28.233Z,69.99
2019-04-26T11:26:25.112Z,70.95
2019-04-26T11:27:25.035Z,69.60
2019-04-26T11:28:24.974Z,69.42
2019-04-26T11:29:28.411Z,70.28
2019-04-26T11:30:24.803Z,70.09
2019-04-26T11:31:27.677Z,70.47
2019-04-26T11:32:24.652Z,69.32
2019-04-26T11:33:24.571Z,70.37
2019-04-26T11:34:25.208Z,69.51
2019-04-26T11:35:24.438Z,68.55
2019-04-26T11:36:24.349Z,68.84
2019-04-26T11:37:24.261Z,68.74
2019-04-26T11:38:26.876Z,68.94
2019-04-26T11:39:24.133Z,68.27
2019-04-26T11:40:24.026Z,68.27
2019-04-26T11:41:24.055Z,68.84
2019-04-26T11:42:23.873Z,68.65
2019-04-26T11:43:23.796Z,67.88
2019-04-26T11:44:27.445Z,68.55
2019-04-26T11:45:23.640Z,68.80
2019-04-26T11:46:29.204Z,69.09
2019-04-26T11:47:23.481Z,68.52
2019-04-26T11:48:25.497Z,69.19
2019-04-26T11:49:23.328Z,69.95
2019-04-26T11:50:23.252Z,70.05
2019-04-26T11:51:23.611Z,70.34
2019-04-26T11:52:23.096Z,71.01
2019-04-26T11:53:23.021Z,71.48
2019-04-26T11:54:22.939Z,71.01
2019-04-26T11:55:25.237Z,70.53
2019-04-26T11:56:22.783Z,70.34
2019-04-26T11:57:22.705Z,70.24
2019-04-26T11:58:23.731Z,70.15
2019-04-26T11:59:22.549Z,71.11
2019-04-26T12:00:22.473Z,72.44
2019-04-26T12:01:22.393Z,71.87
2019-04-26T12:02:22.315Z,71.07
2019-04-26T12:03:24.999Z,71.45
2019-04-26T12:04:22.158Z,72.22
2019-04-26T12:05:22.076Z,72.41
2019-04-26T12:06:22.002Z,72.50
2019-04-26T12:07:21.927Z,73.65
2019-04-26T12:08:21.846Z,72.60
2019-04-26T12:09:21.768Z,73.75
2019-04-26T12:10:21.694Z,73.11
2019-04-26T12:11:31.330Z,72.25
2019-04-26T12:12:21.532Z,71.87
2019-04-26T12:13:25.032Z,72.25
2019-04-26T12:14:21.372Z,71.77
2019-04-26T12:15:30.128Z,72.44
2019-04-26T12:16:21.215Z,71.01
2019-04-26T12:17:21.138Z,71.01
2019-04-26T12:18:21.144Z,69.92
2019-04-26T12:19:20.984Z,70.21
2019-04-26T12:20:22.440Z,70.40
2019-04-26T12:21:20.826Z,71.64
2019-04-26T12:22:20.749Z,72.41
2019-04-26T12:23:21.842Z,72.79
2019-04-26T12:24:20.591Z,72.12
2019-04-26T12:25:20.510Z,72.31
2019-04-26T12:26:21.761Z,72.31
2019-04-26T12:27:20.400Z,72.79
2019-04-26T12:28:20.278Z,72.69
2019-04-26T12:29:20.197Z,72.50
2019-04-26T12:30:24.749Z,73.75
2019-04-26T12:31:20.042Z,74.32
2019-04-26T12:32:19.964Z,73.46
2019-04-26T12:33:19.886Z,74.13
2019-04-26T12:34:19.808Z,74.51
2019-04-26T12:35:19.726Z,74.80
2019-04-26T12:36:19.650Z,74.57
2019-04-26T12:37:20.920Z,74.51
2019-04-26T12:38:19.490Z,74.99
2019-04-26T12:39:19.412Z,76.00
2019-04-26T12:40:19.572Z,75.27
2019-04-26T12:41:25.306Z,75.37
2019-04-26T12:42:19.167Z,75.71
2019-04-26T12:43:19.995Z,76.04
2019-04-26T12:44:19.016Z,77.00
2019-04-26T12:45:18.940Z,75.66
2019-04-26T12:46:22.711Z,76.33
2019-04-26T12:47:18.780Z,76.29
2019-04-26T12:48:18.701Z,76.10
2019-04-26T12:49:20.242Z,75.37
2019-04-26T12:50:18.542Z,76.29
2019-04-26T12:51:18.462Z,75.81
2019-04-26T12:52:21.553Z,76.48
2019-04-26T12:53:18.306Z,75.81
2019-04-26T12:54:18.226Z,76.48
2019-04-26T12:55:19.985Z,76.77
2019-04-26T12:56:18.081Z,76.39
2019-04-26T12:57:17.990Z,77.44
2019-04-26T12:58:17.913Z,76.86
2019-04-26T12:59:17.834Z,75.81
2019-04-26T13:00:17.767Z,76.67
2019-04-26T13:01:17.678Z,77.63
2019-04-26T13:02:20.840Z,76.67
2019-04-26T13:03:20.429Z,77.15
2019-04-26T13:04:17.435Z,77.82
2019-04-26T13:05:18.941Z,77.92